sensor_id;sensor_type;location;lat;lon;timestamp;P1;durP1;ratioP1;P2;durP2;ratioP2
50012;SDS011;35901;48.694;9.476;2023-01-04T00:00:58;25.83;;;18.90;;
50012;SDS011;35901;48.694;9.476;2023-01-04T00:03:24;30.87;;;21.43;;
50012;SDS011;35901;48.694;9.476;2023-01-04T00:05:50;22.90;;;17.00;;
50012;SDS011;35901;48.694;9.476;2023-01-04T00:08:16;22.97;;;18.07;;
50012;SDS011;35901;48.694;9.476;2023-01-04T00:10:41;21.97;;;16.93;;
50012;SDS011;35901;48.694;9.476;2023-01-04T00:13:07;20.97;;;15.73;;
50012;SDS011;35901;48.694;9.476;2023-01-04T00:15:33;22.43;;;17.60;;
50012;SDS011;35901;48.694;9.476;2023-01-04T00:17:59;29.73;;;20.87;;
50012;SDS011;35901;48.694;9.476;2023-01-04T00:20:24;27.97;;;19.90;;
50012;SDS011;35901;48.694;9.476;2023-01-04T00:22:51;26.57;;;19.83;;
50012;SDS011;35901;48.694;9.476;2023-01-04T00:25:16;23.77;;;19.03;;
50012;SDS011;35901;48.694;9.476;2023-01-04T00:27:42;25.03;;;18.97;;
50012;SDS011;35901;48.694;9.476;2023-01-04T00:30:08;27.13;;;20.17;;
50012;SDS011;35901;48.694;9.476;2023-01-04T00:32:34;31.33;;;22.23;;
50012;SDS011;35901;48.694;9.476;2023-01-04T00:34:59;34.77;;;24.37;;
50012;SDS011;35901;48.694;9.476;2023-01-04T00:37:25;31.00;;;23.33;;
50012;SDS011;35901;48.694;9.476;2023-01-04T00:39:50;30.50;;;22.70;;
50012;SDS011;35901;48.694;9.476;2023-01-04T00:42:16;33.47;;;24.03;;
50012;SDS011;35901;48.694;9.476;2023-01-04T00:44:42;30.47;;;24.00;;
50012;SDS011;35901;48.694;9.476;2023-01-04T00:47:07;31.30;;;23.47;;
50012;SDS011;35901;48.694;9.476;2023-01-04T00:49:33;24.27;;;19.37;;
50012;SDS011;35901;48.694;9.476;2023-01-04T00:51:59;30.50;;;22.50;;
50012;SDS011;35901;48.694;9.476;2023-01-04T00:54:25;27.43;;;20.70;;
50012;SDS011;35901;48.694;9.476;2023-01-04T00:56:50;31.03;;;23.77;;
50012;SDS011;35901;48.694;9.476;2023-01-04T00:59:17;28.83;;;21.33;;
50012;SDS011;35901;48.694;9.476;2023-01-04T01:01:44;29.60;;;21.47;;
50012;SDS011;35901;48.694;9.476;2023-01-04T01:04:11;30.37;;;22.03;;
50012;SDS011;35901;48.694;9.476;2023-01-04T01:06:38;29.03;;;20.60;;
50012;SDS011;35901;48.694;9.476;2023-01-04T01:09:04;25.83;;;18.50;;
50012;SDS011;35901;48.694;9.476;2023-01-04T01:11:30;21.93;;;17.80;;
50012;SDS011;35901;48.694;9.476;2023-01-04T01:13:56;26.97;;;20.07;;
50012;SDS011;35901;48.694;9.476;2023-01-04T01:16:23;23.93;;;17.27;;
50012;SDS011;35901;48.694;9.476;2023-01-04T01:18:50;24.17;;;18.03;;
50012;SDS011;35901;48.694;9.476;2023-01-04T01:21:18;18.70;;;15.10;;
50012;SDS011;35901;48.694;9.476;2023-01-04T01:23:46;26.50;;;19.03;;
50012;SDS011;35901;48.694;9.476;2023-01-04T01:26:13;21.87;;;16.40;;
50012;SDS011;35901;48.694;9.476;2023-01-04T01:28:41;19.73;;;15.30;;
50012;SDS011;35901;48.694;9.476;2023-01-04T01:31:09;20.97;;;15.87;;
50012;SDS011;35901;48.694;9.476;2023-01-04T01:33:38;23.97;;;18.43;;
50012;SDS011;35901;48.694;9.476;2023-01-04T01:36:05;22.77;;;16.93;;
50012;SDS011;35901;48.694;9.476;2023-01-04T01:38:32;23.33;;;19.00;;
50012;SDS011;35901;48.694;9.476;2023-01-04T01:40:58;21.57;;;16.80;;
50012;SDS011;35901;48.694;9.476;2023-01-04T01:51:49;18.47;;;14.63;;
50012;SDS011;35901;48.694;9.476;2023-01-04T01:54:20;21.60;;;16.83;;
50012;SDS011;35901;48.694;9.476;2023-01-04T01:57:00;21.27;;;17.43;;
50012;SDS011;35901;48.694;9.476;2023-01-04T01:59:29;24.10;;;17.40;;
50012;SDS011;35901;48.694;9.476;2023-01-04T02:01:58;22.67;;;17.07;;
50012;SDS011;35901;48.694;9.476;2023-01-04T02:04:24;18.53;;;14.80;;
50012;SDS011;35901;48.694;9.476;2023-01-04T02:06:53;20.03;;;14.80;;
50012;SDS011;35901;48.694;9.476;2023-01-04T02:09:21;20.83;;;15.77;;
50012;SDS011;35901;48.694;9.476;2023-01-04T02:11:47;16.27;;;12.57;;
50012;SDS011;35901;48.694;9.476;2023-01-04T02:14:13;15.80;;;11.67;;
50012;SDS011;35901;48.694;9.476;2023-01-04T02:17:01;17.67;;;13.30;;
50012;SDS011;35901;48.694;9.476;2023-01-04T02:31:33;23.13;;;17.00;;
50012;SDS011;35901;48.694;9.476;2023-01-04T02:40:11;27.77;;;19.60;;
50012;SDS011;35901;48.694;9.476;2023-01-04T02:45:43;23.17;;;17.97;;
50012;SDS011;35901;48.694;9.476;2023-01-04T02:48:19;23.50;;;17.73;;
50012;SDS011;35901;48.694;9.476;2023-01-04T02:51:04;17.07;;;13.57;;
50012;SDS011;35901;48.694;9.476;2023-01-04T03:01:41;18.10;;;14.03;;
50012;SDS011;35901;48.694;9.476;2023-01-04T03:10:04;19.93;;;14.27;;
50012;SDS011;35901;48.694;9.476;2023-01-04T03:12:43;19.27;;;14.60;;
50012;SDS011;35901;48.694;9.476;2023-01-04T03:15:24;21.87;;;15.70;;
50012;SDS011;35901;48.694;9.476;2023-01-04T03:17:58;17.87;;;14.93;;
50012;SDS011;35901;48.694;9.476;2023-01-04T03:20:37;18.33;;;13.90;;
50012;SDS011;35901;48.694;9.476;2023-01-04T03:23:04;21.17;;;16.30;;
50012;SDS011;35901;48.694;9.476;2023-01-04T03:25:52;22.60;;;16.37;;
50012;SDS011;35901;48.694;9.476;2023-01-04T03:28:53;21.23;;;16.67;;
50012;SDS011;35901;48.694;9.476;2023-01-04T03:31:46;20.63;;;14.90;;
50012;SDS011;35901;48.694;9.476;2023-01-04T03:34:36;17.53;;;14.20;;
50012;SDS011;35901;48.694;9.476;2023-01-04T03:40:26;25.93;;;18.37;;
50012;SDS011;35901;48.694;9.476;2023-01-04T03:43:15;19.73;;;14.63;;
50012;SDS011;35901;48.694;9.476;2023-01-04T03:46:51;21.93;;;16.13;;
50012;SDS011;35901;48.694;9.476;2023-01-04T03:49:24;22.47;;;16.17;;
50012;SDS011;35901;48.694;9.476;2023-01-04T03:52:12;21.77;;;16.27;;
50012;SDS011;35901;48.694;9.476;2023-01-04T03:54:40;22.90;;;17.13;;
50012;SDS011;35901;48.694;9.476;2023-01-04T03:57:11;20.03;;;15.50;;
50012;SDS011;35901;48.694;9.476;2023-01-04T03:59:38;18.13;;;13.90;;
50012;SDS011;35901;48.694;9.476;2023-01-04T04:02:10;24.73;;;16.97;;
50012;SDS011;35901;48.694;9.476;2023-01-04T04:04:39;19.23;;;13.03;;
50012;SDS011;35901;48.694;9.476;2023-01-04T04:07:24;20.80;;;14.47;;
50012;SDS011;35901;48.694;9.476;2023-01-04T04:10:08;14.63;;;12.20;;
50012;SDS011;35901;48.694;9.476;2023-01-04T04:12:34;17.93;;;13.43;;
50012;SDS011;35901;48.694;9.476;2023-01-04T04:14:59;16.50;;;13.23;;
50012;SDS011;35901;48.694;9.476;2023-01-04T04:17:25;20.73;;;14.50;;
50012;SDS011;35901;48.694;9.476;2023-01-04T04:19:51;18.17;;;13.60;;
50012;SDS011;35901;48.694;9.476;2023-01-04T04:22:16;16.73;;;12.87;;
50012;SDS011;35901;48.694;9.476;2023-01-04T04:24:42;22.87;;;16.10;;
50012;SDS011;35901;48.694;9.476;2023-01-04T04:27:08;22.50;;;16.40;;
50012;SDS011;35901;48.694;9.476;2023-01-04T04:29:33;25.50;;;17.13;;
50012;SDS011;35901;48.694;9.476;2023-01-04T04:31:59;18.97;;;13.57;;
50012;SDS011;35901;48.694;9.476;2023-01-04T04:34:25;20.20;;;14.53;;
50012;SDS011;35901;48.694;9.476;2023-01-04T04:36:50;22.57;;;16.87;;
50012;SDS011;35901;48.694;9.476;2023-01-04T04:39:16;20.13;;;16.70;;
50012;SDS011;35901;48.694;9.476;2023-01-04T04:41:42;27.40;;;19.33;;
50012;SDS011;35901;48.694;9.476;2023-01-04T04:44:08;28.27;;;18.97;;
50012;SDS011;35901;48.694;9.476;2023-01-04T04:46:36;21.97;;;16.87;;
50012;SDS011;35901;48.694;9.476;2023-01-04T04:49:02;24.03;;;17.73;;
50012;SDS011;35901;48.694;9.476;2023-01-04T04:51:28;24.37;;;18.47;;
50012;SDS011;35901;48.694;9.476;2023-01-04T04:53:54;23.83;;;17.13;;
50012;SDS011;35901;48.694;9.476;2023-01-04T04:56:20;21.03;;;16.50;;
50012;SDS011;35901;48.694;9.476;2023-01-04T04:58:46;21.70;;;14.90;;
50012;SDS011;35901;48.694;9.476;2023-01-04T05:01:12;22.50;;;16.70;;
50012;SDS011;35901;48.694;9.476;2023-01-04T05:03:37;23.07;;;17.60;;
50012;SDS011;35901;48.694;9.476;2023-01-04T05:06:03;23.73;;;16.77;;
50012;SDS011;35901;48.694;9.476;2023-01-04T05:08:29;21.00;;;15.43;;
50012;SDS011;35901;48.694;9.476;2023-01-04T05:10:55;16.70;;;13.47;;
50012;SDS011;35901;48.694;9.476;2023-01-04T05:13:20;21.00;;;16.70;;
50012;SDS011;35901;48.694;9.476;2023-01-04T05:15:49;17.07;;;14.23;;
50012;SDS011;35901;48.694;9.476;2023-01-04T05:18:17;20.13;;;15.60;;
50012;SDS011;35901;48.694;9.476;2023-01-04T05:20:45;18.73;;;14.67;;
50012;SDS011;35901;48.694;9.476;2023-01-04T05:23:12;18.47;;;13.83;;
50012;SDS011;35901;48.694;9.476;2023-01-04T05:25:39;17.73;;;13.93;;
50012;SDS011;35901;48.694;9.476;2023-01-04T05:28:06;17.70;;;14.33;;
50012;SDS011;35901;48.694;9.476;2023-01-04T05:30:32;17.20;;;13.97;;
50012;SDS011;35901;48.694;9.476;2023-01-04T05:35:50;20.47;;;15.30;;
50012;SDS011;35901;48.694;9.476;2023-01-04T05:38:17;21.43;;;15.73;;
50012;SDS011;35901;48.694;9.476;2023-01-04T05:40:43;19.70;;;14.93;;
50012;SDS011;35901;48.694;9.476;2023-01-04T05:43:09;18.70;;;13.83;;
50012;SDS011;35901;48.694;9.476;2023-01-04T05:45:38;17.53;;;13.27;;
50012;SDS011;35901;48.694;9.476;2023-01-04T05:48:05;20.63;;;15.67;;
50012;SDS011;35901;48.694;9.476;2023-01-04T05:50:31;21.30;;;15.43;;
50012;SDS011;35901;48.694;9.476;2023-01-04T05:53:02;17.50;;;14.03;;
50012;SDS011;35901;48.694;9.476;2023-01-04T05:55:29;21.63;;;15.97;;
50012;SDS011;35901;48.694;9.476;2023-01-04T05:57:55;18.13;;;14.47;;
50012;SDS011;35901;48.694;9.476;2023-01-04T06:00:20;19.03;;;15.03;;
50012;SDS011;35901;48.694;9.476;2023-01-04T06:02:46;18.70;;;13.67;;
50012;SDS011;35901;48.694;9.476;2023-01-04T06:05:13;18.67;;;13.83;;
50012;SDS011;35901;48.694;9.476;2023-01-04T06:07:39;19.63;;;14.60;;
50012;SDS011;35901;48.694;9.476;2023-01-04T06:10:05;19.23;;;13.87;;
50012;SDS011;35901;48.694;9.476;2023-01-04T06:12:32;20.13;;;14.70;;
50012;SDS011;35901;48.694;9.476;2023-01-04T06:14:58;16.37;;;12.60;;
50012;SDS011;35901;48.694;9.476;2023-01-04T06:17:24;20.03;;;14.10;;
50012;SDS011;35901;48.694;9.476;2023-01-04T06:19:49;16.07;;;12.90;;
50012;SDS011;35901;48.694;9.476;2023-01-04T06:22:15;18.77;;;14.30;;
50012;SDS011;35901;48.694;9.476;2023-01-04T06:24:41;22.73;;;15.50;;
50012;SDS011;35901;48.694;9.476;2023-01-04T06:27:06;25.47;;;19.13;;
50012;SDS011;35901;48.694;9.476;2023-01-04T06:29:32;24.53;;;18.87;;
50012;SDS011;35901;48.694;9.476;2023-01-04T06:31:58;26.37;;;18.97;;
50012;SDS011;35901;48.694;9.476;2023-01-04T06:34:23;20.87;;;16.73;;
50012;SDS011;35901;48.694;9.476;2023-01-04T06:36:49;23.90;;;17.43;;
50012;SDS011;35901;48.694;9.476;2023-01-04T06:39:15;24.70;;;19.10;;
50012;SDS011;35901;48.694;9.476;2023-01-04T06:41:40;24.60;;;17.93;;
50012;SDS011;35901;48.694;9.476;2023-01-04T06:44:06;22.23;;;16.63;;
50012;SDS011;35901;48.694;9.476;2023-01-04T06:46:32;21.23;;;16.60;;
50012;SDS011;35901;48.694;9.476;2023-01-04T06:48:58;24.57;;;18.27;;
50012;SDS011;35901;48.694;9.476;2023-01-04T06:51:23;25.77;;;18.13;;
50012;SDS011;35901;48.694;9.476;2023-01-04T06:53:49;24.97;;;18.57;;
50012;SDS011;35901;48.694;9.476;2023-01-04T06:56:15;22.37;;;16.30;;
50012;SDS011;35901;48.694;9.476;2023-01-04T06:58:40;25.37;;;18.13;;
50012;SDS011;35901;48.694;9.476;2023-01-04T07:01:06;23.50;;;17.40;;
50012;SDS011;35901;48.694;9.476;2023-01-04T07:03:32;28.27;;;18.47;;
50012;SDS011;35901;48.694;9.476;2023-01-04T07:05:58;21.97;;;17.80;;
50012;SDS011;35901;48.694;9.476;2023-01-04T07:08:24;23.73;;;17.20;;
50012;SDS011;35901;48.694;9.476;2023-01-04T07:10:50;21.10;;;16.83;;
50012;SDS011;35901;48.694;9.476;2023-01-04T07:13:15;19.97;;;14.87;;
50012;SDS011;35901;48.694;9.476;2023-01-04T07:15:41;22.00;;;16.03;;
50012;SDS011;35901;48.694;9.476;2023-01-04T07:18:07;22.20;;;17.17;;
50012;SDS011;35901;48.694;9.476;2023-01-04T07:20:34;22.87;;;17.73;;
50012;SDS011;35901;48.694;9.476;2023-01-04T07:23:00;27.77;;;20.37;;
50012;SDS011;35901;48.694;9.476;2023-01-04T07:25:26;26.67;;;17.90;;
50012;SDS011;35901;48.694;9.476;2023-01-04T07:27:52;23.50;;;16.60;;
50012;SDS011;35901;48.694;9.476;2023-01-04T07:30:19;24.43;;;19.43;;
50012;SDS011;35901;48.694;9.476;2023-01-04T07:32:46;26.00;;;19.63;;
50012;SDS011;35901;48.694;9.476;2023-01-04T07:35:12;23.73;;;18.97;;
50012;SDS011;35901;48.694;9.476;2023-01-04T07:37:37;24.73;;;19.03;;
50012;SDS011;35901;48.694;9.476;2023-01-04T07:40:09;23.77;;;18.43;;
50012;SDS011;35901;48.694;9.476;2023-01-04T07:42:36;25.13;;;19.00;;
50012;SDS011;35901;48.694;9.476;2023-01-04T07:45:03;24.63;;;18.83;;
50012;SDS011;35901;48.694;9.476;2023-01-04T07:47:29;25.93;;;18.57;;
50012;SDS011;35901;48.694;9.476;2023-01-04T07:49:55;25.00;;;18.77;;
50012;SDS011;35901;48.694;9.476;2023-01-04T07:52:20;27.53;;;18.73;;
50012;SDS011;35901;48.694;9.476;2023-01-04T07:54:46;29.10;;;21.40;;
50012;SDS011;35901;48.694;9.476;2023-01-04T07:57:12;29.10;;;21.43;;
50012;SDS011;35901;48.694;9.476;2023-01-04T07:59:38;26.27;;;19.20;;
50012;SDS011;35901;48.694;9.476;2023-01-04T08:02:04;27.53;;;21.37;;
50012;SDS011;35901;48.694;9.476;2023-01-04T08:04:30;27.67;;;20.57;;
50012;SDS011;35901;48.694;9.476;2023-01-04T08:06:55;28.83;;;21.00;;
50012;SDS011;35901;48.694;9.476;2023-01-04T08:09:21;25.37;;;19.87;;
50012;SDS011;35901;48.694;9.476;2023-01-04T08:11:47;25.17;;;18.43;;
50012;SDS011;35901;48.694;9.476;2023-01-04T08:14:13;31.83;;;22.13;;
50012;SDS011;35901;48.694;9.476;2023-01-04T08:16:39;27.40;;;20.50;;
50012;SDS011;35901;48.694;9.476;2023-01-04T08:21:39;26.20;;;19.73;;
50012;SDS011;35901;48.694;9.476;2023-01-04T08:24:06;29.10;;;21.03;;
50012;SDS011;35901;48.694;9.476;2023-01-04T08:26:33;26.63;;;19.40;;
50012;SDS011;35901;48.694;9.476;2023-01-04T08:28:59;25.77;;;18.53;;
50012;SDS011;35901;48.694;9.476;2023-01-04T08:31:29;28.17;;;20.00;;
50012;SDS011;35901;48.694;9.476;2023-01-04T08:33:56;27.93;;;19.23;;
50012;SDS011;35901;48.694;9.476;2023-01-04T08:36:29;31.57;;;21.63;;
50012;SDS011;35901;48.694;9.476;2023-01-04T08:38:57;27.77;;;20.67;;
50012;SDS011;35901;48.694;9.476;2023-01-04T08:41:25;29.77;;;20.17;;
50012;SDS011;35901;48.694;9.476;2023-01-04T08:43:51;30.50;;;21.17;;
50012;SDS011;35901;48.694;9.476;2023-01-04T08:46:16;32.00;;;21.80;;
50012;SDS011;35901;48.694;9.476;2023-01-04T08:48:42;35.77;;;22.27;;
50012;SDS011;35901;48.694;9.476;2023-01-04T08:51:09;35.33;;;22.97;;
50012;SDS011;35901;48.694;9.476;2023-01-04T08:53:37;34.20;;;22.93;;
50012;SDS011;35901;48.694;9.476;2023-01-04T08:56:03;34.37;;;23.40;;
50012;SDS011;35901;48.694;9.476;2023-01-04T08:58:30;34.23;;;23.63;;
50012;SDS011;35901;48.694;9.476;2023-01-04T09:01:00;29.97;;;20.07;;
50012;SDS011;35901;48.694;9.476;2023-01-04T09:03:30;30.53;;;19.73;;
50012;SDS011;35901;48.694;9.476;2023-01-04T09:06:12;34.43;;;22.30;;
50012;SDS011;35901;48.694;9.476;2023-01-04T09:08:39;32.80;;;21.70;;
50012;SDS011;35901;48.694;9.476;2023-01-04T09:11:13;30.73;;;19.60;;
50012;SDS011;35901;48.694;9.476;2023-01-04T09:13:41;35.80;;;21.60;;
50012;SDS011;35901;48.694;9.476;2023-01-04T09:16:08;33.67;;;23.27;;
50012;SDS011;35901;48.694;9.476;2023-01-04T09:18:36;33.23;;;22.87;;
50012;SDS011;35901;48.694;9.476;2023-01-04T09:21:11;31.77;;;21.33;;
50012;SDS011;35901;48.694;9.476;2023-01-04T09:23:41;35.20;;;23.40;;
50012;SDS011;35901;48.694;9.476;2023-01-04T09:26:18;30.20;;;21.97;;
50012;SDS011;35901;48.694;9.476;2023-01-04T09:28:51;31.67;;;22.77;;
50012;SDS011;35901;48.694;9.476;2023-01-04T09:31:19;31.13;;;21.73;;
50012;SDS011;35901;48.694;9.476;2023-01-04T09:33:47;33.80;;;23.80;;
50012;SDS011;35901;48.694;9.476;2023-01-04T09:36:14;27.80;;;21.70;;
50012;SDS011;35901;48.694;9.476;2023-01-04T09:38:40;32.37;;;23.30;;
50012;SDS011;35901;48.694;9.476;2023-01-04T09:41:09;34.40;;;24.57;;
50012;SDS011;35901;48.694;9.476;2023-01-04T09:44:00;31.70;;;23.53;;
50012;SDS011;35901;48.694;9.476;2023-01-04T09:46:42;29.07;;;20.63;;
50012;SDS011;35901;48.694;9.476;2023-01-04T09:51:41;41.60;;;29.57;;
50012;SDS011;35901;48.694;9.476;2023-01-04T09:54:16;40.10;;;30.03;;
50012;SDS011;35901;48.694;9.476;2023-01-04T09:56:48;45.30;;;31.77;;
50012;SDS011;35901;48.694;9.476;2023-01-04T09:59:16;35.63;;;26.33;;
50012;SDS011;35901;48.694;9.476;2023-01-04T10:01:52;38.07;;;27.53;;
50012;SDS011;35901;48.694;9.476;2023-01-04T10:07:20;36.13;;;26.67;;
50012;SDS011;35901;48.694;9.476;2023-01-04T10:09:52;37.63;;;26.50;;
50012;SDS011;35901;48.694;9.476;2023-01-04T10:20:48;34.50;;;26.50;;
50012;SDS011;35901;48.694;9.476;2023-01-04T10:23:51;33.70;;;25.63;;
50012;SDS011;35901;48.694;9.476;2023-01-04T10:26:46;32.27;;;25.10;;
50012;SDS011;35901;48.694;9.476;2023-01-04T10:29:49;33.13;;;25.57;;
50012;SDS011;35901;48.694;9.476;2023-01-04T10:36:39;37.53;;;27.53;;
50012;SDS011;35901;48.694;9.476;2023-01-04T10:39:29;34.60;;;24.97;;
50012;SDS011;35901;48.694;9.476;2023-01-04T10:41:58;36.40;;;26.60;;
50012;SDS011;35901;48.694;9.476;2023-01-04T10:53:01;34.63;;;24.80;;
50012;SDS011;35901;48.694;9.476;2023-01-04T10:55:49;33.80;;;25.53;;
50012;SDS011;35901;48.694;9.476;2023-01-04T10:58:47;31.67;;;24.17;;
50012;SDS011;35901;48.694;9.476;2023-01-04T11:04:43;23.57;;;19.60;;
50012;SDS011;35901;48.694;9.476;2023-01-04T11:07:46;14.93;;;12.60;;
50012;SDS011;35901;48.694;9.476;2023-01-04T11:10:25;13.03;;;9.63;;
50012;SDS011;35901;48.694;9.476;2023-01-04T11:13:02;18.03;;;15.83;;
50012;SDS011;35901;48.694;9.476;2023-01-04T11:15:35;23.00;;;19.60;;
50012;SDS011;35901;48.694;9.476;2023-01-04T11:18:22;29.13;;;23.63;;
50012;SDS011;35901;48.694;9.476;2023-01-04T11:20:50;27.10;;;22.00;;
50012;SDS011;35901;48.694;9.476;2023-01-04T11:23:17;22.70;;;19.80;;
50012;SDS011;35901;48.694;9.476;2023-01-04T11:25:46;19.13;;;17.03;;
50012;SDS011;35901;48.694;9.476;2023-01-04T11:31:23;14.00;;;12.57;;
50012;SDS011;35901;48.694;9.476;2023-01-04T11:38:56;9.77;;;8.77;;
50012;SDS011;35901;48.694;9.476;2023-01-04T11:41:22;9.13;;;8.10;;
50012;SDS011;35901;48.694;9.476;2023-01-04T11:44:22;6.40;;;5.80;;
50012;SDS011;35901;48.694;9.476;2023-01-04T11:46:42;5.37;;;4.07;;
50012;SDS011;35901;48.694;9.476;2023-01-04T11:49:16;3.00;;;2.70;;
50012;SDS011;35901;48.694;9.476;2023-01-04T11:51:43;1.90;;;1.80;;
50012;SDS011;35901;48.694;9.476;2023-01-04T11:54:16;2.33;;;1.60;;
50012;SDS011;35901;48.694;9.476;2023-01-04T11:57:00;2.13;;;1.90;;
50012;SDS011;35901;48.694;9.476;2023-01-04T11:59:30;3.13;;;2.17;;
50012;SDS011;35901;48.694;9.476;2023-01-04T12:04:39;3.20;;;2.90;;
50012;SDS011;35901;48.694;9.476;2023-01-04T12:07:06;2.17;;;1.97;;
50012;SDS011;35901;48.694;9.476;2023-01-04T12:09:45;1.60;;;1.50;;
50012;SDS011;35901;48.694;9.476;2023-01-04T12:12:11;1.97;;;1.70;;
50012;SDS011;35901;48.694;9.476;2023-01-04T12:14:38;1.73;;;1.50;;
50012;SDS011;35901;48.694;9.476;2023-01-04T12:20:10;1.93;;;1.50;;
50012;SDS011;35901;48.694;9.476;2023-01-04T12:23:18;1.30;;;1.20;;
50012;SDS011;35901;48.694;9.476;2023-01-04T12:25:44;1.20;;;1.20;;
50012;SDS011;35901;48.694;9.476;2023-01-04T12:33:42;1.53;;;1.43;;
50012;SDS011;35901;48.694;9.476;2023-01-04T12:36:16;2.70;;;2.00;;
50012;SDS011;35901;48.694;9.476;2023-01-04T12:41:19;1.60;;;1.50;;
50012;SDS011;35901;48.694;9.476;2023-01-04T12:43:46;1.47;;;1.37;;
50012;SDS011;35901;48.694;9.476;2023-01-04T12:59:53;1.63;;;1.53;;
50012;SDS011;35901;48.694;9.476;2023-01-04T13:02:38;1.57;;;1.43;;
50012;SDS011;35901;48.694;9.476;2023-01-04T13:07:41;2.03;;;1.93;;
50012;SDS011;35901;48.694;9.476;2023-01-04T13:13:12;2.10;;;1.87;;
50012;SDS011;35901;48.694;9.476;2023-01-04T13:16:07;1.90;;;1.80;;
50012;SDS011;35901;48.694;9.476;2023-01-04T13:18:56;1.90;;;1.80;;
50012;SDS011;35901;48.694;9.476;2023-01-04T13:21:39;1.97;;;1.80;;
50012;SDS011;35901;48.694;9.476;2023-01-04T13:26:56;2.97;;;2.00;;
50012;SDS011;35901;48.694;9.476;2023-01-04T13:29:31;3.63;;;2.60;;
50012;SDS011;35901;48.694;9.476;2023-01-04T13:32:07;2.67;;;2.30;;
50012;SDS011;35901;48.694;9.476;2023-01-04T13:34:36;2.83;;;2.20;;
50012;SDS011;35901;48.694;9.476;2023-01-04T13:37:31;3.50;;;2.50;;
50012;SDS011;35901;48.694;9.476;2023-01-04T13:42:28;2.20;;;1.80;;
50012;SDS011;35901;48.694;9.476;2023-01-04T13:47:49;2.77;;;1.97;;
50012;SDS011;35901;48.694;9.476;2023-01-04T13:50:30;1.87;;;1.57;;
50012;SDS011;35901;48.694;9.476;2023-01-04T13:52:58;1.73;;;1.60;;
50012;SDS011;35901;48.694;9.476;2023-01-04T13:55:25;1.60;;;1.50;;
50012;SDS011;35901;48.694;9.476;2023-01-04T13:57:53;1.50;;;1.40;;
50012;SDS011;35901;48.694;9.476;2023-01-04T14:00:24;1.63;;;1.53;;
50012;SDS011;35901;48.694;9.476;2023-01-04T14:09:51;1.70;;;1.30;;
50012;SDS011;35901;48.694;9.476;2023-01-04T14:12:21;1.80;;;1.70;;
50012;SDS011;35901;48.694;9.476;2023-01-04T14:14:55;1.57;;;1.47;;
50012;SDS011;35901;48.694;9.476;2023-01-04T14:17:33;1.43;;;1.33;;
50012;SDS011;35901;48.694;9.476;2023-01-04T14:38:26;2.13;;;1.97;;
50012;SDS011;35901;48.694;9.476;2023-01-04T14:40:52;2.97;;;1.87;;
50012;SDS011;35901;48.694;9.476;2023-01-04T14:46:00;2.53;;;2.00;;
50012;SDS011;35901;48.694;9.476;2023-01-04T14:48:27;1.97;;;1.70;;
50012;SDS011;35901;48.694;9.476;2023-01-04T14:50:53;1.90;;;1.80;;
50012;SDS011;35901;48.694;9.476;2023-01-04T14:53:19;2.20;;;2.00;;
50012;SDS011;35901;48.694;9.476;2023-01-04T14:55:45;2.60;;;2.00;;
50012;SDS011;35901;48.694;9.476;2023-01-04T14:58:11;2.87;;;2.30;;
50012;SDS011;35901;48.694;9.476;2023-01-04T15:00:37;2.67;;;2.40;;
50012;SDS011;35901;48.694;9.476;2023-01-04T15:03:03;3.07;;;2.30;;
50012;SDS011;35901;48.694;9.476;2023-01-04T15:05:29;3.63;;;2.40;;
50012;SDS011;35901;48.694;9.476;2023-01-04T15:07:55;3.40;;;2.97;;
50012;SDS011;35901;48.694;9.476;2023-01-04T15:10:22;2.40;;;2.20;;
50012;SDS011;35901;48.694;9.476;2023-01-04T15:12:50;6.10;;;4.13;;
50012;SDS011;35901;48.694;9.476;2023-01-04T15:15:16;3.03;;;2.73;;
50012;SDS011;35901;48.694;9.476;2023-01-04T15:17:43;2.60;;;2.30;;
50012;SDS011;35901;48.694;9.476;2023-01-04T15:20:09;3.50;;;2.67;;
50012;SDS011;35901;48.694;9.476;2023-01-04T15:22:35;2.40;;;2.20;;
50012;SDS011;35901;48.694;9.476;2023-01-04T15:25:01;4.27;;;2.13;;
50012;SDS011;35901;48.694;9.476;2023-01-04T15:27:27;2.17;;;1.97;;
50012;SDS011;35901;48.694;9.476;2023-01-04T15:29:53;2.13;;;2.03;;
50012;SDS011;35901;48.694;9.476;2023-01-04T15:32:19;2.20;;;2.00;;
50012;SDS011;35901;48.694;9.476;2023-01-04T15:34:47;3.73;;;2.77;;
50012;SDS011;35901;48.694;9.476;2023-01-04T15:37:13;2.27;;;1.77;;
50012;SDS011;35901;48.694;9.476;2023-01-04T15:39:39;2.53;;;2.33;;
50012;SDS011;35901;48.694;9.476;2023-01-04T15:42:04;1.93;;;1.83;;
50012;SDS011;35901;48.694;9.476;2023-01-04T15:44:49;1.97;;;1.43;;
50012;SDS011;35901;48.694;9.476;2023-01-04T15:47:14;1.90;;;1.80;;
50012;SDS011;35901;48.694;9.476;2023-01-04T15:49:40;1.40;;;1.30;;
50012;SDS011;35901;48.694;9.476;2023-01-04T15:52:06;1.13;;;1.13;;
50012;SDS011;35901;48.694;9.476;2023-01-04T15:54:31;1.50;;;1.40;;
50012;SDS011;35901;48.694;9.476;2023-01-04T15:56:57;1.50;;;1.40;;
50012;SDS011;35901;48.694;9.476;2023-01-04T15:59:23;1.20;;;1.20;;
50012;SDS011;35901;48.694;9.476;2023-01-04T16:01:49;1.33;;;1.23;;
50012;SDS011;35901;48.694;9.476;2023-01-04T16:04:15;1.30;;;1.20;;
50012;SDS011;35901;48.694;9.476;2023-01-04T16:06:41;1.03;;;1.03;;
50012;SDS011;35901;48.694;9.476;2023-01-04T16:09:06;1.40;;;1.30;;
50012;SDS011;35901;48.694;9.476;2023-01-04T16:11:32;1.37;;;1.23;;
50012;SDS011;35901;48.694;9.476;2023-01-04T16:13:58;1.97;;;1.87;;
50012;SDS011;35901;48.694;9.476;2023-01-04T16:16:24;1.93;;;1.83;;
50012;SDS011;35901;48.694;9.476;2023-01-04T16:18:52;2.00;;;1.40;;
50012;SDS011;35901;48.694;9.476;2023-01-04T16:21:20;1.73;;;1.60;;
50012;SDS011;35901;48.694;9.476;2023-01-04T16:23:52;1.40;;;1.30;;
50012;SDS011;35901;48.694;9.476;2023-01-04T16:26:22;2.50;;;1.40;;
50012;SDS011;35901;48.694;9.476;2023-01-04T16:28:51;1.50;;;1.40;;
50012;SDS011;35901;48.694;9.476;2023-01-04T16:31:19;1.57;;;1.37;;
50012;SDS011;35901;48.694;9.476;2023-01-04T16:33:52;2.70;;;1.67;;
50012;SDS011;35901;48.694;9.476;2023-01-04T16:36:18;2.10;;;1.70;;
50012;SDS011;35901;48.694;9.476;2023-01-04T16:38:45;1.70;;;1.60;;
50012;SDS011;35901;48.694;9.476;2023-01-04T16:41:14;2.00;;;1.80;;
50012;SDS011;35901;48.694;9.476;2023-01-04T16:43:46;2.73;;;2.20;;
50012;SDS011;35901;48.694;9.476;2023-01-04T16:48:56;1.93;;;1.73;;
50012;SDS011;35901;48.694;9.476;2023-01-04T16:51:24;4.47;;;2.83;;
50012;SDS011;35901;48.694;9.476;2023-01-04T16:53:54;2.50;;;2.30;;
50012;SDS011;35901;48.694;9.476;2023-01-04T16:56:21;1.70;;;1.60;;
50012;SDS011;35901;48.694;9.476;2023-01-04T16:58:47;2.30;;;2.00;;
50012;SDS011;35901;48.694;9.476;2023-01-04T17:01:15;1.63;;;1.53;;
50012;SDS011;35901;48.694;9.476;2023-01-04T17:03:48;3.10;;;2.60;;
50012;SDS011;35901;48.694;9.476;2023-01-04T17:06:16;2.20;;;2.00;;
50012;SDS011;35901;48.694;9.476;2023-01-04T17:08:44;1.70;;;1.60;;
50012;SDS011;35901;48.694;9.476;2023-01-04T17:11:15;1.60;;;1.50;;
50012;SDS011;35901;48.694;9.476;2023-01-04T17:13:43;1.80;;;1.50;;
50012;SDS011;35901;48.694;9.476;2023-01-04T17:16:09;1.87;;;1.60;;
50012;SDS011;35901;48.694;9.476;2023-01-04T17:18:40;2.80;;;1.60;;
50012;SDS011;35901;48.694;9.476;2023-01-04T17:21:09;1.97;;;1.80;;
50012;SDS011;35901;48.694;9.476;2023-01-04T17:23:40;1.57;;;1.47;;
50012;SDS011;35901;48.694;9.476;2023-01-04T17:26:14;1.60;;;1.50;;
50012;SDS011;35901;48.694;9.476;2023-01-04T17:28:45;1.53;;;1.43;;